createdAt,value
2018-01-19T00:00:55.406Z,72.70
2018-01-19T00:03:23.770Z,72.70
2018-01-19T00:05:51.507Z,73.00
2018-01-19T00:08:19.597Z,73.10
2018-01-19T00:10:48.431Z,72.80
2018-01-19T00:13:20.496Z,72.70
2018-01-19T00:15:49.669Z,73.20
2018-01-19T00:18:18.781Z,73.10
2018-01-19T00:20:49.776Z,73.70
2018-01-19T00:23:18.569Z,73.70
2018-01-19T00:25:47.190Z,74.20
2018-01-19T00:28:15.149Z,74.10
2018-01-19T00:30:42.936Z,74.50
2018-01-19T00:33:11.615Z,75.00
2018-01-19T00:35:51.280Z,74.90
2018-01-19T00:38:20.515Z,75.00
2018-01-19T00:40:48.587Z,75.50
2018-01-19T00:43:17.107Z,75.80
2018-01-19T00:45:45.358Z,76.50
2018-01-19T00:48:13.132Z,75.90
2018-01-19T00:50:41.645Z,75.50
2018-01-19T00:53:10.089Z,76.10
2018-01-19T00:55:37.810Z,76.00
2018-01-19T00:58:05.561Z,76.30
2018-01-19T01:00:33.289Z,76.40
2018-01-19T01:03:01.090Z,76.90
2018-01-19T01:05:28.841Z,76.80
2018-01-19T01:07:57.379Z,76.90
2018-01-19T01:10:25.098Z,76.90
2018-01-19T01:12:52.818Z,77.20
2018-01-19T01:15:20.697Z,77.70
2018-01-19T01:17:49.346Z,78.10
2018-01-19T01:20:17.053Z,78.00
2018-01-19T01:22:45.556Z,78.40
2018-01-19T01:25:13.272Z,78.30
2018-01-19T01:27:42.120Z,78.60
2018-01-19T01:30:09.865Z,78.50
2018-01-19T01:32:37.797Z,78.80
2018-01-19T01:35:05.687Z,79.00
2018-01-19T01:37:34.290Z,78.80
2018-01-19T01:40:02.208Z,78.80
2018-01-19T01:42:30.922Z,79.00
2018-01-19T01:44:58.640Z,79.00
2018-01-19T01:47:26.541Z,78.80
2018-01-19T01:49:54.250Z,77.70
2018-01-19T01:52:22.191Z,76.70
2018-01-19T01:54:49.968Z,76.20
2018-01-19T01:57:17.725Z,75.70
2018-01-19T01:59:45.455Z,75.00
2018-01-19T02:02:13.248Z,74.80
2018-01-19T02:04:41.026Z,74.60
2018-01-19T02:07:08.769Z,74.50
2018-01-19T02:09:37.250Z,74.30
2018-01-19T02:12:05.082Z,74.20
2018-01-19T02:14:32.798Z,74.20
2018-01-19T02:17:00.538Z,74.90
2018-01-19T02:19:28.368Z,74.70
2018-01-19T02:21:56.870Z,74.70
2018-01-19T02:24:25.403Z,75.30
2018-01-19T02:26:53.164Z,75.20
2018-01-19T02:29:20.946Z,75.60
2018-01-19T02:31:48.683Z,76.00
2018-01-19T02:34:16.433Z,76.10
2018-01-19T02:36:44.139Z,76.30
2018-01-19T02:39:11.882Z,76.60
2018-01-19T02:41:39.677Z,76.30
2018-01-19T02:44:07.373Z,76.70
2018-01-19T02:46:35.185Z,77.00
2018-01-19T02:49:02.970Z,77.00
2018-01-19T02:51:30.734Z,77.10
2018-01-19T02:53:59.207Z,76.80
2018-01-19T02:56:27.736Z,77.00
2018-01-19T02:58:55.450Z,76.90
2018-01-19T03:01:23.199Z,77.00
2018-01-19T03:03:50.929Z,77.00
2018-01-19T03:06:18.688Z,77.40
2018-01-19T03:08:46.414Z,77.10
2018-01-19T03:11:15.055Z,77.50
2018-01-19T03:13:42.816Z,77.40
2018-01-19T03:16:10.525Z,77.60
2018-01-19T03:18:38.303Z,78.00
2018-01-19T03:21:05.987Z,78.10
2018-01-19T03:23:33.747Z,78.80
2018-01-19T03:26:01.450Z,79.00
2018-01-19T03:28:29.245Z,79.40
2018-01-19T03:30:57.711Z,79.10
2018-01-19T03:33:25.481Z,79.00
2018-01-19T03:35:53.975Z,78.90
2018-01-19T03:38:21.738Z,78.80
2018-01-19T03:40:49.454Z,79.20
2018-01-19T03:43:17.198Z,79.10
2018-01-19T03:45:44.886Z,79.20
2018-01-19T03:48:12.646Z,78.90
2018-01-19T03:50:40.363Z,79.20
2018-01-19T03:53:08.141Z,79.10
2018-01-19T03:55:35.894Z,79.10
2018-01-19T03:58:03.646Z,79.60
2018-01-19T04:00:31.422Z,79.70
2018-01-19T04:02:59.134Z,80.40
2018-01-19T04:05:26.898Z,80.20
2018-01-19T04:07:54.613Z,80.30
2018-01-19T04:10:22.388Z,80.10
2018-01-19T04:12:50.118Z,80.60
2018-01-19T04:15:17.871Z,81.00
2018-01-19T04:17:45.623Z,81.00
2018-01-19T04:20:14.120Z,80.80
2018-01-19T04:22:42.643Z,81.10
2018-01-19T04:25:10.349Z,81.00
2018-01-19T04:27:38.088Z,80.90
2018-01-19T04:30:05.852Z,81.00
2018-01-19T04:32:33.584Z,81.10
2018-01-19T04:35:01.338Z,81.00
2018-01-19T04:37:29.075Z,81.10
2018-01-19T04:39:57.675Z,81.20
2018-01-19T04:42:25.402Z,81.10
2018-01-19T04:44:53.926Z,81.50
2018-01-19T04:47:21.614Z,81.30
2018-01-19T04:49:50.118Z,82.00
2018-01-19T04:52:17.878Z,81.90
2018-01-19T04:54:45.630Z,82.00
2018-01-19T04:57:13.418Z,82.40
2018-01-19T04:59:41.938Z,82.70
2018-01-19T05:02:09.689Z,82.70
2018-01-19T05:04:37.396Z,82.50
2018-01-19T05:07:05.202Z,82.80
2018-01-19T05:09:33.685Z,83.20
2018-01-19T05:12:01.440Z,83.20
2018-01-19T05:14:29.144Z,83.00
2018-01-19T05:16:56.881Z,83.00
2018-01-19T05:19:24.613Z,82.60
2018-01-19T05:21:53.093Z,82.80
2018-01-19T05:24:20.912Z,82.80
2018-01-19T05:26:48.652Z,82.80
2018-01-19T05:29:16.398Z,82.80
2018-01-19T05:31:44.873Z,83.10
2018-01-19T05:34:13.437Z,82.80
2018-01-19T05:36:41.179Z,82.80
2018-01-19T05:39:08.891Z,83.10
2018-01-19T05:41:37.369Z,82.50
2018-01-19T05:44:06.502Z,82.60
2018-01-19T05:46:34.417Z,82.60
2018-01-19T05:49:02.175Z,82.40
2018-01-19T05:51:30.706Z,81.80
2018-01-19T05:53:58.553Z,81.30
2018-01-19T05:56:26.330Z,80.50
2018-01-19T05:58:54.078Z,80.50
2018-01-19T06:01:21.836Z,80.60
2018-01-19T06:03:49.599Z,80.70
2018-01-19T06:06:17.306Z,80.80
2018-01-19T06:08:45.048Z,80.90
2018-01-19T06:11:12.765Z,81.00
2018-01-19T06:13:41.296Z,80.60
2018-01-19T06:16:09.132Z,80.50
2018-01-19T06:18:36.920Z,80.40
2018-01-19T06:21:04.701Z,79.90
2018-01-19T06:23:32.458Z,79.80
2018-01-19T06:26:00.172Z,79.70
2018-01-19T06:28:28.794Z,79.60
2018-01-19T06:30:56.498Z,79.50
2018-01-19T06:33:24.246Z,79.50
2018-01-19T06:35:52.052Z,80.00
2018-01-19T06:38:20.588Z,80.40
2018-01-19T06:40:48.362Z,80.40
2018-01-19T06:43:16.112Z,80.30
2018-01-19T06:45:43.829Z,80.40
2018-01-19T06:48:11.579Z,80.50
2018-01-19T06:50:40.073Z,80.70
2018-01-19T06:53:07.820Z,80.60
2018-01-19T06:55:35.611Z,80.60
2018-01-19T06:58:03.373Z,81.00
2018-01-19T07:00:34.869Z,80.70
2018-01-19T07:03:02.714Z,80.70
2018-01-19T07:05:30.689Z,80.90
2018-01-19T07:07:58.466Z,81.30
2018-01-19T07:10:26.618Z,81.70
2018-01-19T07:12:54.510Z,81.90
2018-01-19T07:15:22.457Z,82.40
2018-01-19T07:17:50.258Z,82.10
2018-01-19T07:20:18.782Z,82.00
2018-01-19T07:22:46.527Z,81.90
2018-01-19T07:25:14.294Z,82.20
2018-01-19T07:27:42.005Z,82.00
2018-01-19T07:30:09.781Z,81.90
2018-01-19T07:32:37.648Z,82.00
2018-01-19T07:35:06.202Z,82.00
2018-01-19T07:37:33.920Z,82.00
2018-01-19T07:40:01.892Z,81.80
2018-01-19T07:42:29.732Z,81.80
2018-01-19T07:44:58.317Z,81.10
2018-01-19T07:47:26.107Z,81.10
2018-01-19T07:49:53.939Z,80.90
2018-01-19T07:52:21.697Z,80.90
2018-01-19T07:54:49.536Z,80.90
2018-01-19T07:57:20.552Z,80.00
2018-01-19T07:59:48.500Z,79.80
2018-01-19T08:02:16.407Z,79.90
2018-01-19T08:04:44.301Z,79.60
2018-01-19T08:07:12.395Z,79.60
2018-01-19T08:09:40.143Z,80.50
2018-01-19T08:12:08.656Z,79.80
2018-01-19T08:14:36.436Z,79.70
2018-01-19T08:17:04.190Z,79.80
2018-01-19T08:19:31.937Z,79.70
2018-01-19T08:21:59.738Z,79.50
2018-01-19T08:24:27.522Z,79.90
2018-01-19T08:26:55.243Z,80.20
2018-01-19T08:29:23.013Z,79.60
2018-01-19T08:31:50.706Z,78.90
2018-01-19T08:34:18.533Z,78.20
2018-01-19T08:36:46.314Z,77.90
2018-01-19T08:39:14.936Z,77.90
2018-01-19T08:41:47.171Z,77.90
2018-01-19T08:44:14.975Z,77.40
2018-01-19T08:46:43.622Z,76.30
2018-01-19T08:49:11.372Z,76.10
2018-01-19T08:51:39.244Z,75.50
2018-01-19T08:54:06.956Z,75.70
2018-01-19T08:56:35.641Z,74.80
2018-01-19T08:59:04.124Z,74.60
2018-01-19T09:01:32.680Z,74.70
2018-01-19T09:04:00.447Z,74.60
2018-01-19T09:06:28.375Z,74.20
2018-01-19T09:08:56.312Z,74.40
2018-01-19T09:11:24.060Z,74.60
2018-01-19T09:13:56.412Z,74.70
2018-01-19T09:16:34.515Z,74.50
2018-01-19T09:19:05.765Z,74.40
2018-01-19T09:21:34.711Z,74.50
2018-01-19T09:24:04.474Z,74.60
2018-01-19T09:26:32.602Z,74.90
2018-01-19T09:29:00.381Z,75.10
2018-01-19T09:31:28.344Z,75.00
2018-01-19T09:33:56.122Z,75.00
2018-01-19T09:36:23.920Z,75.00
2018-01-19T09:38:52.625Z,73.40
2018-01-19T09:41:21.186Z,73.40
2018-01-19T09:43:48.988Z,73.30
2018-01-19T09:46:16.899Z,73.40
2018-01-19T09:48:44.680Z,73.50
2018-01-19T09:51:12.542Z,74.20
2018-01-19T09:53:40.276Z,74.50
2018-01-19T09:56:08.047Z,74.30
2018-01-19T09:58:35.753Z,74.10
2018-01-19T10:01:03.535Z,74.00
2018-01-19T10:03:31.323Z,73.70
2018-01-19T10:05:59.122Z,73.70
2018-01-19T10:08:27.603Z,74.30
2018-01-19T10:10:56.109Z,74.10
2018-01-19T10:13:23.838Z,74.00
2018-01-19T10:15:52.522Z,73.00
2018-01-19T10:18:20.268Z,72.90
2018-01-19T10:20:47.954Z,72.50
2018-01-19T10:23:16.579Z,72.60
2018-01-19T10:25:44.325Z,72.60
2018-01-19T10:28:12.826Z,73.70
2018-01-19T10:30:40.546Z,73.60
2018-01-19T10:33:08.460Z,73.70
2018-01-19T10:35:36.182Z,73.60
2018-01-19T10:38:04.648Z,73.20
2018-01-19T10:40:32.446Z,73.20
2018-01-19T10:43:00.341Z,71.80
2018-01-19T10:45:28.203Z,71.30
2018-01-19T10:47:55.945Z,70.70
2018-01-19T10:50:23.708Z,70.20
2018-01-19T10:52:51.529Z,69.30
2018-01-19T10:55:19.326Z,68.10
2018-01-19T10:57:47.897Z,67.80
2018-01-19T11:00:16.389Z,67.60
2018-01-19T11:02:44.889Z,66.60
2018-01-19T11:05:12.686Z,66.50
2018-01-19T11:07:40.522Z,66.30
2018-01-19T11:10:09.124Z,65.40
2018-01-19T11:12:36.808Z,65.30
2018-01-19T11:15:04.539Z,65.30
2018-01-19T11:17:32.263Z,64.80
2018-01-19T11:20:00.894Z,64.20
2018-01-19T11:22:28.606Z,64.10
2018-01-19T11:24:56.316Z,63.00
2018-01-19T11:27:24.042Z,62.80
2018-01-19T11:29:51.801Z,62.00
2018-01-19T11:32:19.490Z,61.70
2018-01-19T11:34:47.197Z,60.70
2018-01-19T11:37:14.937Z,61.30
2018-01-19T11:39:42.677Z,61.60
2018-01-19T11:42:10.407Z,61.10
2018-01-19T11:44:38.889Z,61.60
2018-01-19T11:47:06.629Z,61.50
2018-01-19T11:49:34.310Z,61.30
2018-01-19T11:52:02.775Z,60.70
2018-01-19T11:54:31.258Z,61.50
2018-01-19T11:56:59.002Z,61.40
2018-01-19T11:59:26.759Z,61.80
2018-01-19T12:01:54.535Z,61.50
2018-01-19T12:04:22.281Z,61.00
2018-01-19T12:06:49.965Z,62.10
2018-01-19T12:09:17.670Z,61.60
2018-01-19T12:11:45.351Z,61.90
2018-01-19T12:14:13.086Z,62.50
2018-01-19T12:16:40.790Z,63.30
2018-01-19T12:19:08.564Z,62.50
2018-01-19T12:21:36.275Z,62.80
2018-01-19T12:24:04.045Z,62.60
2018-01-19T12:26:31.738Z,62.90
2018-01-19T12:28:59.448Z,61.70
2018-01-19T12:31:27.158Z,61.10
2018-01-19T12:33:54.884Z,60.50
2018-01-19T12:36:22.776Z,60.40
2018-01-19T12:38:50.485Z,60.30
2018-01-19T12:41:18.974Z,60.50
2018-01-19T12:43:47.536Z,61.20
2018-01-19T12:46:16.750Z,60.80
2018-01-19T12:48:44.473Z,60.80
2018-01-19T12:51:12.191Z,60.80
2018-01-19T12:53:39.913Z,60.30
2018-01-19T12:56:07.620Z,59.80
2018-01-19T12:58:35.332Z,59.40
2018-01-19T13:01:03.198Z,60.00
2018-01-19T13:03:30.991Z,61.40
2018-01-19T13:05:59.455Z,62.20
2018-01-19T13:08:28.101Z,66.70
2018-01-19T13:10:56.617Z,70.70
2018-01-19T13:13:24.334Z,70.80
2018-01-19T13:15:52.031Z,72.50
2018-01-19T13:18:19.957Z,73.00
2018-01-19T13:20:47.714Z,74.00
2018-01-19T13:23:15.541Z,74.50
2018-01-19T13:25:43.313Z,73.90
2018-01-19T13:28:11.160Z,74.20
2018-01-19T13:30:38.896Z,72.20
2018-01-19T13:33:06.622Z,71.20
2018-01-19T13:35:34.321Z,69.70
2018-01-19T13:38:02.226Z,68.00
2018-01-19T13:40:30.077Z,65.30
2018-01-19T13:42:57.815Z,66.00
2018-01-19T13:45:25.682Z,65.30
2018-01-19T13:47:53.366Z,65.20
2018-01-19T13:50:21.097Z,65.10
2018-01-19T13:52:48.784Z,65.50
2018-01-19T13:55:16.556Z,64.20
2018-01-19T14:00:14.137Z,65.00
2018-01-19T14:02:42.070Z,64.70
2018-01-19T14:05:09.798Z,64.20
2018-01-19T14:07:37.533Z,64.30
2018-01-19T14:10:05.990Z,61.60
2018-01-19T14:12:33.792Z,60.80
2018-01-19T14:15:02.312Z,57.40
2018-01-19T14:17:30.032Z,57.40
2018-01-19T14:19:58.489Z,57.10
2018-01-19T14:22:26.221Z,57.10
2018-01-19T14:24:53.957Z,56.30
2018-01-19T14:27:21.711Z,55.40
2018-01-19T14:29:50.189Z,53.50
2018-01-19T14:32:18.703Z,54.60
2018-01-19T14:34:46.499Z,53.60
2018-01-19T14:39:48.099Z,53.20
2018-01-19T14:42:16.609Z,52.70
2018-01-19T14:44:44.362Z,52.70
2018-01-19T14:47:12.112Z,52.20
2018-01-19T14:49:39.842Z,51.30
2018-01-19T14:52:07.620Z,50.00
2018-01-19T14:54:36.137Z,46.40
2018-01-19T14:57:03.911Z,46.40
2018-01-19T14:59:31.659Z,46.50
2018-01-19T15:01:59.462Z,45.60
2018-01-19T15:04:27.252Z,47.20
2018-01-19T15:06:55.828Z,47.90
2018-01-19T15:09:23.591Z,47.90
2018-01-19T15:11:52.113Z,52.70
2018-01-19T15:14:20.042Z,52.20
2018-01-19T15:16:48.545Z,54.70
2018-01-19T15:19:17.058Z,53.70
2018-01-19T15:21:44.791Z,53.70
2018-01-19T15:24:12.596Z,53.20
2018-01-19T15:26:40.368Z,54.40
2018-01-19T15:29:08.179Z,53.50
2018-01-19T15:31:36.830Z,53.30
2018-01-19T15:34:05.400Z,53.40
2018-01-19T15:36:33.102Z,53.40
2018-01-19T15:41:36.461Z,54.70
2018-01-19T15:44:04.159Z,54.70
2018-01-19T15:46:31.926Z,56.40
2018-01-19T15:48:59.690Z,58.60
2018-01-19T15:51:28.245Z,59.40
2018-01-19T15:53:55.969Z,59.30
2018-01-19T15:56:23.863Z,59.50
2018-01-19T15:58:51.596Z,59.80
2018-01-19T16:01:20.093Z,62.30
2018-01-19T16:03:47.861Z,62.20
2018-01-19T16:06:15.858Z,63.30
2018-01-19T16:08:43.585Z,64.40
2018-01-19T16:11:11.404Z,65.10
2018-01-19T16:13:39.914Z,66.30
2018-01-19T16:16:07.646Z,66.30
2018-01-19T16:18:36.100Z,67.70
2018-01-19T16:21:03.897Z,67.60
2018-01-19T16:23:32.372Z,69.20
2018-01-19T16:26:00.077Z,69.00
2018-01-19T16:28:28.557Z,70.00
2018-01-19T16:30:56.315Z,70.00
2018-01-19T16:33:24.043Z,70.60
2018-01-19T16:35:52.608Z,71.30
2018-01-19T16:38:20.350Z,71.30
2018-01-19T16:40:48.100Z,71.60
2018-01-19T16:43:15.876Z,71.60
2018-01-19T16:45:43.601Z,71.80
2018-01-19T16:48:11.287Z,71.50
2018-01-19T16:50:39.131Z,71.80
2018-01-19T16:53:06.892Z,71.40
2018-01-19T16:55:34.614Z,71.20
2018-01-19T16:58:02.345Z,70.60
2018-01-19T17:00:30.069Z,70.20
2018-01-19T17:02:58.550Z,70.20
2018-01-19T17:05:27.026Z,69.60
2018-01-19T17:07:55.547Z,69.00
2018-01-19T17:10:23.271Z,69.00
2018-01-19T17:12:51.002Z,68.60
2018-01-19T17:15:18.732Z,68.50
2018-01-19T17:17:46.485Z,68.40
2018-01-19T17:20:14.235Z,68.60
2018-01-19T17:22:41.993Z,69.00
2018-01-19T17:25:09.921Z,69.00
2018-01-19T17:27:37.672Z,69.50
2018-01-19T17:30:05.405Z,69.40
2018-01-19T17:32:33.173Z,69.80
2018-01-19T17:35:00.914Z,70.20
2018-01-19T17:37:28.704Z,70.40
2018-01-19T17:39:56.393Z,70.50
2018-01-19T17:42:24.898Z,71.80
2018-01-19T17:44:52.693Z,71.90
2018-01-19T17:47:20.413Z,72.20
2018-01-19T17:49:48.151Z,72.50
2018-01-19T17:52:15.827Z,73.40
2018-01-19T17:54:43.514Z,73.80
2018-01-19T17:57:12.014Z,74.70
2018-01-19T17:59:39.723Z,74.70
2018-01-19T18:02:07.500Z,74.70
2018-01-19T18:04:35.265Z,75.10
2018-01-19T18:07:03.003Z,74.90
2018-01-19T18:09:30.682Z,75.00
2018-01-19T18:11:58.407Z,74.70
2018-01-19T18:14:26.110Z,74.90
2018-01-19T18:16:54.662Z,74.40
2018-01-19T18:19:22.415Z,74.60
2018-01-19T18:21:50.153Z,74.00
2018-01-19T18:24:17.844Z,73.60
2018-01-19T18:26:45.583Z,73.50
2018-01-19T18:29:13.745Z,73.30
2018-01-19T18:31:41.559Z,73.10
2018-01-19T18:34:09.257Z,73.10
2018-01-19T18:36:37.938Z,73.90
2018-01-19T18:39:05.649Z,73.90
2018-01-19T18:41:33.438Z,74.20
2018-01-19T18:44:01.343Z,74.10
2018-01-19T18:46:29.188Z,74.10
2018-01-19T18:48:56.942Z,74.20
2018-01-19T18:51:24.786Z,73.70
2018-01-19T18:53:52.489Z,73.50
2018-01-19T18:56:20.950Z,74.10
2018-01-19T18:58:48.667Z,73.50
2018-01-19T19:01:16.337Z,73.80
2018-01-19T19:03:44.049Z,74.00
2018-01-19T19:06:13.288Z,74.10
2018-01-19T19:08:41.084Z,74.00
2018-01-19T19:11:08.813Z,74.50
2018-01-19T19:13:36.808Z,75.10
2018-01-19T19:16:04.652Z,75.40
2018-01-19T19:18:32.537Z,74.50
2018-01-19T19:21:00.262Z,74.10
2018-01-19T19:23:28.072Z,73.60
2018-01-19T19:25:55.755Z,73.30
2018-01-19T19:28:23.477Z,73.50
2018-01-19T19:30:51.185Z,73.70
2018-01-19T19:33:19.117Z,73.70
2018-01-19T19:35:46.837Z,73.70
2018-01-19T19:38:15.338Z,73.70
2018-01-19T19:40:43.021Z,73.60
2018-01-19T19:43:10.733Z,73.50
2018-01-19T19:45:38.445Z,73.90
2018-01-19T19:48:06.127Z,74.20
2018-01-19T19:50:33.838Z,74.60
2018-01-19T19:53:01.593Z,74.20
2018-01-19T19:55:29.261Z,74.00
2018-01-19T19:57:56.993Z,73.80
2018-01-19T20:00:24.718Z,73.60
2018-01-19T20:02:52.463Z,73.60
2018-01-19T20:05:20.365Z,73.70
2018-01-19T20:07:48.150Z,74.40
2018-01-19T20:10:17.513Z,73.90
2018-01-19T20:12:45.246Z,74.00
2018-01-19T20:15:12.960Z,73.80
2018-01-19T20:17:40.699Z,73.70
2018-01-19T20:20:08.414Z,73.80
2018-01-19T20:22:36.873Z,73.40
2018-01-19T20:25:04.612Z,73.30
2018-01-19T20:27:32.325Z,73.70
2018-01-19T20:30:00.079Z,73.50
2018-01-19T20:32:28.661Z,73.10
2018-01-19T20:34:57.169Z,73.30
2018-01-19T20:37:24.924Z,73.30
2018-01-19T20:39:52.638Z,73.60
2018-01-19T20:42:20.513Z,73.30
2018-01-19T20:44:49.739Z,74.00
2018-01-19T20:47:18.196Z,74.60
2018-01-19T20:49:46.034Z,74.60
2018-01-19T20:52:13.852Z,74.80
2018-01-19T20:54:41.685Z,74.90
2018-01-19T20:57:10.175Z,75.60
2018-01-19T20:59:37.893Z,75.60
2018-01-19T21:02:05.638Z,75.90
2018-01-19T21:04:33.315Z,76.00
2018-01-19T21:07:01.031Z,75.90
2018-01-19T21:09:29.157Z,76.00
2018-01-19T21:11:57.025Z,75.40
2018-01-19T21:14:24.889Z,74.60
2018-01-19T21:16:52.601Z,74.10
2018-01-19T21:21:54.958Z,74.10
2018-01-19T21:24:22.691Z,74.40
2018-01-19T21:26:50.384Z,74.60
2018-01-19T21:29:18.075Z,74.80
2018-01-19T21:31:46.570Z,74.90
2018-01-19T21:34:14.293Z,74.80
2018-01-19T21:36:42.749Z,76.00
2018-01-19T21:39:10.641Z,75.50
2018-01-19T21:41:38.354Z,75.80
2018-01-19T21:44:06.037Z,75.70
2018-01-19T21:46:33.754Z,74.90
2018-01-19T21:49:02.190Z,76.90
2018-01-19T21:51:29.943Z,76.90
2018-01-19T21:53:57.623Z,77.00
2018-01-19T21:56:25.367Z,77.20
2018-01-19T21:58:53.073Z,77.10
2018-01-19T22:01:21.710Z,76.20
2018-01-19T22:03:49.414Z,76.10
2018-01-19T22:06:17.988Z,76.20
2018-01-19T22:08:46.072Z,76.20
2018-01-19T22:11:14.314Z,76.10
2018-01-19T22:13:42.402Z,76.20
2018-01-19T22:16:11.703Z,76.20
2018-01-19T22:18:39.567Z,76.20
2018-01-19T22:21:07.340Z,76.30
2018-01-19T22:23:35.966Z,77.20
2018-01-19T22:26:03.850Z,76.90
2018-01-19T22:28:31.559Z,77.20
2018-01-19T22:31:00.051Z,77.70
2018-01-19T22:33:28.543Z,77.60
2018-01-19T22:35:56.246Z,77.40
2018-01-19T22:38:23.973Z,77.90
2018-01-19T22:40:51.862Z,77.80
2018-01-19T22:43:19.727Z,78.60
2018-01-19T22:45:47.468Z,78.70
2018-01-19T22:48:15.234Z,78.70
2018-01-19T22:50:43.121Z,78.50
2018-01-19T22:53:10.842Z,78.40
2018-01-19T22:55:39.401Z,78.10
2018-01-19T22:58:07.707Z,78.10
2018-01-19T23:00:35.508Z,77.70
2018-01-19T23:03:03.213Z,77.10
2018-01-19T23:05:30.944Z,77.30
2018-01-19T23:07:58.619Z,77.20
2018-01-19T23:10:26.353Z,77.10
2018-01-19T23:12:54.257Z,76.60
2018-01-19T23:15:22.087Z,76.80
2018-01-19T23:17:49.985Z,77.30
2018-01-19T23:20:17.856Z,77.80
2018-01-19T23:22:47.156Z,77.70
2018-01-19T23:25:15.671Z,78.00
2018-01-19T23:27:43.418Z,78.00
2018-01-19T23:30:11.988Z,78.70
2018-01-19T23:32:40.114Z,78.60
2018-01-19T23:35:08.002Z,78.80
2018-01-19T23:37:36.279Z,78.90
2018-01-19T23:40:04.873Z,78.80
2018-01-19T23:42:32.763Z,78.70
2018-01-19T23:45:04.220Z,78.40
2018-01-19T23:47:32.955Z,78.50
2018-01-19T23:50:00.890Z,78.50
2018-01-19T23:52:28.686Z,78.90
2018-01-19T23:54:56.403Z,78.70
2018-01-19T23:57:24.490Z,78.40
2018-01-19T23:59:52.303Z,77.40
